Time;durP1;ratioP1;P1;durP2;ratioP2;P2;SDS_P1;SDS_P2;PMS_P1;PMS_P2;Temp;Humidity;BMP_temperature;BMP_pressure;BME280_temperature;BME280_humidity;BME280_pressure;Samples;Min_cycle;Max_cycle;Signal;HPM_P1;HPM_P2
2024/03/26 00:00:28;;;;;;;12.75;8.80;;;13.40;96.70;;;;;;5071860;28;20135;-71
2024/03/26 00:02:56;;;;;;;12.95;7.60;;;13.40;96.70;;;;;;5061644;28;20048;-69
2024/03/26 00:05:25;;;;;;;11.85;7.50;;;13.50;96.70;;;;;;5050429;28;20076;-69
2024/03/26 00:07:52;;;;;;;10.30;6.60;;;13.60;96.70;;;;;;5070969;28;20048;-69
2024/03/26 00:10:20;;;;;;;8.77;6.05;;;13.60;96.70;;;;;;5071065;28;20039;-71
2024/03/26 00:12:47;;;;;;;9.93;5.80;;;13.60;96.70;;;;;;5069813;28;20072;-70
2024/03/26 00:15:15;;;;;;;8.75;4.00;;;13.60;96.70;;;;;;5050439;28;20130;-71
2024/03/26 00:17:43;;;;;;;9.93;4.53;;;13.50;96.70;;;;;;5070169;28;20051;-72
2024/03/26 00:20:12;;;;;;;6.97;3.85;;;13.50;96.70;;;;;;5082006;28;20060;-71
2024/03/26 00:22:41;;;;;;;5.25;3.20;;;13.50;96.70;;;;;;5081055;28;20450;-72
2024/03/26 00:25:09;;;;;;;6.10;3.42;;;13.50;96.70;;;;;;5066482;28;20072;-72
2024/03/26 00:27:36;;;;;;;6.97;3.22;;;13.40;96.70;;;;;;5049942;28;20102;-71
2024/03/26 00:30:05;;;;;;;6.55;3.15;;;13.40;96.70;;;;;;5058293;28;20059;-72
2024/03/26 00:32:32;;;;;;;5.63;3.25;;;13.40;96.70;;;;;;5066830;28;20063;-71
2024/03/26 00:35:03;;;;;;;7.30;3.40;;;13.40;96.70;;;;;;5066483;28;20036;-72
2024/03/26 00:37:32;;;;;;;5.68;3.03;;;13.50;96.70;;;;;;5066451;28;20120;-71
2024/03/26 00:40:01;;;;;;;5.95;2.80;;;13.40;96.70;;;;;;5081370;28;20077;-71
2024/03/26 00:42:30;;;;;;;8.88;2.67;;;13.40;96.70;;;;;;5045738;28;20098;-72
2024/03/26 00:45:00;;;;;;;5.18;2.47;;;13.40;96.70;;;;;;5066035;28;20402;-72
2024/03/26 00:47:27;;;;;;;8.23;3.00;;;13.50;96.70;;;;;;5060280;28;20478;-72
2024/03/26 00:49:54;;;;;;;5.75;3.28;;;13.40;96.70;;;;;;5072047;28;20044;-72
2024/03/26 00:52:23;;;;;;;5.82;2.67;;;13.40;96.70;;;;;;5067703;28;20393;-72
2024/03/26 00:54:50;;;;;;;5.82;2.55;;;13.40;96.70;;;;;;5052411;28;20113;-73
2024/03/26 00:57:20;;;;;;;7.20;2.97;;;13.40;96.70;;;;;;5065545;28;20044;-72
2024/03/26 00:59:47;;;;;;;6.00;2.30;;;13.50;96.70;;;;;;5071538;28;20132;-72
2024/03/26 01:02:18;;;;;;;4.55;2.67;;;13.50;96.70;;;;;;5076204;28;20048;-72
2024/03/26 01:04:46;;;;;;;5.53;2.72;;;13.50;96.70;;;;;;5066018;28;20521;-72
2024/03/26 01:07:13;;;;;;;5.75;2.25;;;13.50;96.70;;;;;;5051339;28;20053;-72
2024/03/26 01:09:42;;;;;;;5.43;2.47;;;13.50;96.70;;;;;;5066209;28;20278;-71
2024/03/26 01:12:12;;;;;;;4.95;2.60;;;13.50;96.70;;;;;;5077995;28;20036;-71
2024/03/26 01:14:40;;;;;;;5.38;2.40;;;13.50;96.70;;;;;;5078736;28;20071;-72
2024/03/26 01:17:07;;;;;;;7.30;2.58;;;13.50;96.70;;;;;;5072102;28;20048;-72
2024/03/26 01:19:38;;;;;;;5.15;2.33;;;13.50;96.70;;;;;;5049031;28;20098;-71
2024/03/26 01:22:05;;;;;;;6.30;2.35;;;13.50;96.70;;;;;;5066252;28;20079;-71
2024/03/26 01:24:33;;;;;;;8.05;3.05;;;13.40;96.70;;;;;;5070448;28;20072;-71
2024/03/26 01:27:00;;;;;;;6.60;2.58;;;13.30;96.70;;;;;;5076812;28;20047;-72
2024/03/26 01:29:27;;;;;;;8.73;3.47;;;13.20;96.70;;;;;;5087864;28;20499;-71
2024/03/26 01:31:55;;;;;;;7.53;2.83;;;13.20;96.70;;;;;;5071681;28;20039;-71
2024/03/26 01:34:24;;;;;;;7.63;4.20;;;13.20;96.70;;;;;;5088029;28;20518;-72
2024/03/26 01:36:51;;;;;;;9.20;4.07;;;13.20;96.70;;;;;;5087852;28;20035;-71
2024/03/26 01:39:18;;;;;;;9.00;3.67;;;13.20;96.70;;;;;;5087614;28;20575;-72
2024/03/26 01:41:46;;;;;;;7.97;3.15;;;13.20;96.70;;;;;;5087583;28;20050;-70
2024/03/26 01:44:13;;;;;;;6.45;2.75;;;13.10;96.70;;;;;;5088190;28;20063;-72
2024/03/26 01:46:41;;;;;;;8.25;3.42;;;13.10;96.70;;;;;;5087445;28;20067;-71
2024/03/26 01:49:11;;;;;;;7.60;2.58;;;13.10;96.70;;;;;;5086553;28;20067;-70
2024/03/26 01:51:43;;;;;;;6.55;2.60;;;13.10;96.70;;;;;;5086797;28;20127;-71
2024/03/26 01:54:13;;;;;;;6.55;2.67;;;13.10;96.70;;;;;;5064707;28;20051;-71
2024/03/26 01:56:40;;;;;;;9.90;2.80;;;13.10;96.70;;;;;;5086890;28;20100;-71
2024/03/26 01:59:10;;;;;;;7.28;2.67;;;13.10;96.70;;;;;;5087719;28;20504;-70
2024/03/26 02:01:37;;;;;;;7.38;2.53;;;13.10;96.70;;;;;;5086940;28;20092;-72
2024/03/26 02:04:06;;;;;;;4.68;2.50;;;13.00;96.70;;;;;;5087183;28;20536;-73
2024/03/26 02:06:35;;;;;;;7.18;2.20;;;13.00;96.70;;;;;;5070933;28;20043;-72
2024/03/26 02:09:03;;;;;;;4.55;2.25;;;13.00;96.70;;;;;;5083099;28;20054;-72
2024/03/26 02:11:31;;;;;;;5.38;2.50;;;13.00;96.70;;;;;;5091338;28;20097;-72
2024/03/26 02:14:00;;;;;;;5.45;2.55;;;13.00;96.70;;;;;;5075592;28;20415;-72
2024/03/26 02:16:27;;;;;;;4.20;2.30;;;12.90;96.70;;;;;;5091680;28;20066;-73
2024/03/26 02:18:54;;;;;;;5.32;2.78;;;12.90;96.70;;;;;;5091734;28;20746;-72
2024/03/26 02:21:23;;;;;;;6.07;2.60;;;12.90;96.70;;;;;;5091057;28;20072;-72
2024/03/26 02:23:56;;;;;;;3.83;2.17;;;12.90;96.70;;;;;;5090059;28;20043;-72
2024/03/26 02:26:25;;;;;;;7.50;3.17;;;12.90;96.70;;;;;;5084668;28;20039;-72
2024/03/26 02:28:54;;;;;;;7.25;2.72;;;12.90;96.70;;;;;;5088958;28;20066;-72
2024/03/26 02:31:23;;;;;;;6.60;3.05;;;12.80;96.70;;;;;;5076630;28;20035;-72
2024/03/26 02:33:50;;;;;;;8.48;2.90;;;12.80;96.70;;;;;;5067205;28;20039;-71
2024/03/26 02:36:18;;;;;;;5.35;2.63;;;12.80;96.70;;;;;;5091816;28;20170;-72
2024/03/26 02:38:46;;;;;;;5.18;2.65;;;12.80;96.70;;;;;;5074550;28;20118;-72
2024/03/26 02:41:15;;;;;;;5.18;2.83;;;12.90;96.70;;;;;;5058161;28;20035;-72
2024/03/26 02:43:46;;;;;;;7.22;3.35;;;12.90;96.70;;;;;;5091718;28;20450;-72
2024/03/26 02:46:13;;;;;;;5.25;2.65;;;12.80;96.70;;;;;;5090795;28;20040;-71
2024/03/26 02:48:41;;;;;;;7.22;2.90;;;12.80;96.70;;;;;;5091326;28;20063;-71
2024/03/26 02:51:08;;;;;;;6.22;3.05;;;12.70;96.70;;;;;;5091405;28;20131;-71
2024/03/26 02:53:37;;;;;;;6.65;3.10;;;12.70;96.70;;;;;;5091388;28;20079;-72
2024/03/26 02:56:06;;;;;;;5.82;2.85;;;12.60;96.70;;;;;;5089932;28;20070;-72
2024/03/26 02:58:35;;;;;;;7.32;2.80;;;12.60;96.70;;;;;;5085931;28;20443;-72
2024/03/26 03:01:11;;;;;;;7.97;2.45;;;12.50;96.70;;;;;;5085527;28;20050;-71
2024/03/26 03:03:43;;;;;;;5.07;2.40;;;12.60;96.70;;;;;;5091000;28;20738;-72
2024/03/26 03:06:11;;;;;;;4.47;2.38;;;12.60;96.70;;;;;;5091074;28;20035;-72
2024/03/26 03:08:39;;;;;;;4.70;2.50;;;12.50;96.70;;;;;;5090381;28;20127;-70
2024/03/26 03:11:06;;;;;;;5.63;2.70;;;12.50;96.70;;;;;;5089547;28;20035;-71
2024/03/26 03:13:34;;;;;;;4.93;3.10;;;12.50;96.70;;;;;;5073938;28;20055;-72
2024/03/26 03:16:03;;;;;;;4.15;2.60;;;12.40;96.70;;;;;;5072759;28;20044;-72
2024/03/26 03:18:34;;;;;;;5.50;3.35;;;12.50;96.70;;;;;;5048385;28;20051;-71
2024/03/26 03:21:02;;;;;;;5.22;3.25;;;12.50;96.70;;;;;;5080802;28;20074;-72
2024/03/26 03:23:30;;;;;;;5.85;3.30;;;12.50;96.70;;;;;;5088476;28;20039;-71
2024/03/26 03:25:58;;;;;;;6.05;3.35;;;12.40;96.70;;;;;;5081819;28;20036;-72
2024/03/26 03:28:26;;;;;;;5.93;3.60;;;12.50;96.70;;;;;;5089114;28;20062;-72
2024/03/26 03:30:55;;;;;;;5.38;3.22;;;12.50;96.70;;;;;;5085341;28;20416;-72
2024/03/26 03:33:26;;;;;;;7.25;3.10;;;12.50;96.70;;;;;;5090036;28;20043;-72
2024/03/26 03:35:56;;;;;;;6.53;3.90;;;12.40;96.70;;;;;;5072682;28;20048;-72
2024/03/26 03:38:23;;;;;;;7.47;3.50;;;12.40;96.70;;;;;;5089211;28;20043;-71
2024/03/26 03:40:51;;;;;;;5.65;2.88;;;12.50;96.70;;;;;;5090235;28;20047;-71
2024/03/26 03:43:19;;;;;;;7.20;3.13;;;12.50;96.70;;;;;;5089183;28;20043;-71
2024/03/26 03:45:46;;;;;;;5.47;3.05;;;12.50;96.70;;;;;;5072822;28;20055;-72
2024/03/26 03:48:13;;;;;;;6.50;3.13;;;12.50;96.70;;;;;;5073022;28;20049;-72
2024/03/26 03:50:40;;;;;;;7.28;3.85;;;12.50;96.70;;;;;;5086450;28;20134;-71
2024/03/26 03:53:09;;;;;;;7.68;3.20;;;12.40;96.70;;;;;;5074320;28;20556;-72
2024/03/26 03:55:36;;;;;;;6.97;3.53;;;12.40;96.70;;;;;;5090237;28;20044;-72
2024/03/26 03:58:05;;;;;;;5.03;3.33;;;12.40;96.70;;;;;;5085947;28;20188;-71
2024/03/26 04:00:32;;;;;;;7.07;3.25;;;12.40;96.70;;;;;;5089686;28;20040;-72
2024/03/26 04:03:01;;;;;;;6.90;3.65;;;12.40;96.70;;;;;;5089855;28;20044;-71
2024/03/26 04:05:28;;;;;;;5.57;3.17;;;12.40;96.70;;;;;;5088352;28;20385;-72
2024/03/26 04:07:56;;;;;;;4.95;3.33;;;12.40;96.70;;;;;;5085103;28;20043;-70
2024/03/26 04:10:26;;;;;;;5.97;3.38;;;12.40;96.70;;;;;;5072811;28;20044;-71
2024/03/26 04:12:54;;;;;;;4.80;3.22;;;12.40;96.70;;;;;;5090968;28;20150;-71
2024/03/26 04:15:20;;;;;;;3.92;2.80;;;12.40;96.70;;;;;;5088688;28;20039;-71
2024/03/26 04:17:50;;;;;;;8.20;4.18;;;12.40;96.70;;;;;;5088729;28;20131;-71
2024/03/26 04:20:18;;;;;;;5.85;3.33;;;12.50;96.70;;;;;;5089138;28;20066;-72
2024/03/26 04:22:47;;;;;;;4.35;2.92;;;12.50;96.70;;;;;;5089456;27;20705;-71
2024/03/26 04:25:14;;;;;;;6.00;3.20;;;12.50;96.70;;;;;;5089325;28;20122;-70
2024/03/26 04:27:46;;;;;;;4.70;3.10;;;12.40;96.70;;;;;;5071618;28;20516;-71
2024/03/26 04:30:17;;;;;;;7.05;3.15;;;12.40;96.70;;;;;;5072699;28;20135;-72
2024/03/26 04:32:43;;;;;;;6.60;3.25;;;12.40;96.70;;;;;;5087760;28;20122;-73
2024/03/26 04:35:11;;;;;;;6.32;3.17;;;12.40;96.70;;;;;;5088613;28;20087;-72
2024/03/26 04:37:38;;;;;;;5.25;3.15;;;12.50;96.70;;;;;;5070846;28;20078;-72
2024/03/26 04:40:06;;;;;;;4.50;3.20;;;12.50;96.70;;;;;;5085263;28;20044;-72
2024/03/26 04:42:34;;;;;;;5.57;3.20;;;12.40;96.70;;;;;;5072799;28;20160;-71
2024/03/26 04:45:03;;;;;;;5.43;3.25;;;12.50;96.70;;;;;;5088790;28;20036;-72
2024/03/26 04:47:32;;;;;;;6.72;3.22;;;12.50;96.70;;;;;;5072533;28;20039;-71
2024/03/26 04:50:00;;;;;;;5.55;2.95;;;12.50;96.70;;;;;;5088147;28;20126;-72
2024/03/26 04:52:29;;;;;;;5.40;3.22;;;12.40;96.70;;;;;;5088309;28;20067;-72
2024/03/26 04:54:56;;;;;;;5.20;3.10;;;12.40;96.70;;;;;;5087316;28;20051;-72
2024/03/26 04:57:23;;;;;;;5.97;3.17;;;12.30;96.70;;;;;;5087363;28;20052;-71
2024/03/26 04:59:51;;;;;;;6.03;3.35;;;12.40;96.70;;;;;;5087478;28;20203;-72
2024/03/26 05:02:20;;;;;;;6.03;3.38;;;12.40;96.70;;;;;;5086773;28;20065;-72
2024/03/26 05:04:48;;;;;;;7.60;3.80;;;12.40;96.70;;;;;;5070805;28;20040;-71
2024/03/26 05:07:17;;;;;;;5.90;3.40;;;12.40;96.70;;;;;;5070787;28;20129;-72
2024/03/26 05:09:44;;;;;;;4.53;3.17;;;12.40;96.70;;;;;;5076790;28;20093;-72
2024/03/26 05:12:13;;;;;;;6.03;4.00;;;12.40;96.70;;;;;;5087541;28;20040;-71
2024/03/26 05:14:40;;;;;;;5.65;3.35;;;12.40;96.70;;;;;;5086851;28;20560;-72
2024/03/26 05:17:09;;;;;;;8.15;3.85;;;12.40;96.70;;;;;;5071285;28;20055;-72
2024/03/26 05:19:38;;;;;;;5.80;3.13;;;12.40;96.70;;;;;;5087818;28;20055;-72
2024/03/26 05:22:07;;;;;;;5.00;3.25;;;12.40;96.70;;;;;;5087725;28;20040;-72
2024/03/26 05:24:35;;;;;;;5.15;3.28;;;12.40;96.70;;;;;;5069877;28;20050;-71
2024/03/26 05:27:02;;;;;;;6.15;3.72;;;12.40;96.70;;;;;;5086453;28;20067;-72
2024/03/26 05:29:31;;;;;;;5.30;3.55;;;12.40;96.70;;;;;;5087669;28;20043;-72
2024/03/26 05:32:00;;;;;;;5.70;3.70;;;12.40;96.70;;;;;;5083492;28;20036;-72
2024/03/26 05:34:28;;;;;;;8.25;3.85;;;12.40;96.70;;;;;;5087563;28;20066;-72
2024/03/26 05:36:57;;;;;;;6.32;3.08;;;12.40;96.70;;;;;;5087899;28;20048;-71
2024/03/26 05:39:26;;;;;;;5.13;3.28;;;12.50;96.70;;;;;;5072342;28;20047;-72
2024/03/26 05:41:53;;;;;;;4.93;3.10;;;12.50;96.70;;;;;;5070546;28;20412;-72
2024/03/26 05:44:22;;;;;;;5.53;3.25;;;12.60;96.70;;;;;;5087334;28;21220;-71
2024/03/26 05:46:50;;;;;;;4.35;3.03;;;12.60;96.70;;;;;;5087166;28;20131;-72
2024/03/26 05:49:18;;;;;;;6.85;3.22;;;12.50;96.70;;;;;;5083551;28;20047;-72
2024/03/26 05:51:45;;;;;;;4.97;2.95;;;12.60;96.70;;;;;;5087629;28;20048;-71
2024/03/26 05:54:15;;;;;;;3.40;2.60;;;12.60;96.70;;;;;;5070915;28;20135;-72
2024/03/26 05:56:43;;;;;;;4.75;2.78;;;12.60;96.70;;;;;;5085661;28;20052;-71
2024/03/26 05:59:11;;;;;;;6.07;2.92;;;12.50;96.70;;;;;;5087598;28;20050;-71
2024/03/26 06:01:38;;;;;;;5.75;2.97;;;12.40;96.70;;;;;;5071148;28;20036;-72
2024/03/26 06:04:07;;;;;;;5.55;2.65;;;12.50;96.70;;;;;;5071185;28;20058;-71
2024/03/26 06:06:36;;;;;;;5.28;3.35;;;12.40;96.70;;;;;;5086277;28;20067;-72
2024/03/26 06:09:04;;;;;;;3.97;2.30;;;12.40;96.70;;;;;;5069194;28;20043;-71
2024/03/26 06:11:34;;;;;;;5.88;2.78;;;12.40;96.70;;;;;;5087390;28;20043;-71
2024/03/26 06:14:03;;;;;;;5.50;3.38;;;12.40;96.70;;;;;;5087421;28;20052;-72
2024/03/26 06:16:31;;;;;;;5.50;2.95;;;12.50;96.70;;;;;;5086978;28;20485;-71
2024/03/26 06:18:59;;;;;;;3.75;2.38;;;12.50;96.70;;;;;;5070411;28;20936;-72
2024/03/26 06:21:26;;;;;;;5.43;2.72;;;12.50;96.70;;;;;;5069885;28;20112;-70
2024/03/26 06:23:53;;;;;;;5.22;3.35;;;12.50;96.70;;;;;;5070337;28;20075;-71
2024/03/26 06:26:21;;;;;;;6.80;3.42;;;12.40;96.70;;;;;;5068924;28;20413;-72
2024/03/26 06:28:50;;;;;;;6.07;3.20;;;12.40;96.70;;;;;;5065125;28;20560;-72
2024/03/26 06:31:17;;;;;;;6.43;3.42;;;12.40;96.70;;;;;;5046160;28;20576;-72
2024/03/26 06:33:45;;;;;;;6.32;3.90;;;12.40;96.70;;;;;;5063186;28;20060;-71
2024/03/26 06:36:14;;;;;;;8.75;3.25;;;12.40;96.70;;;;;;5063422;28;20049;-72
2024/03/26 06:38:43;;;;;;;5.63;3.40;;;12.40;96.70;;;;;;5022472;28;20406;-72
2024/03/26 06:41:13;;;;;;;6.50;3.78;;;12.30;96.70;;;;;;5062051;28;20174;-69
2024/03/26 06:43:41;;;;;;;4.93;2.83;;;12.40;96.70;;;;;;5063922;28;20055;-71
2024/03/26 06:46:10;;;;;;;4.57;2.60;;;12.40;96.70;;;;;;5046493;28;20417;-71
2024/03/26 06:48:38;;;;;;;4.80;2.63;;;12.40;96.70;;;;;;5063794;28;20466;-71
2024/03/26 06:51:05;;;;;;;5.68;2.97;;;12.30;96.70;;;;;;5063575;28;20125;-71
2024/03/26 06:53:37;;;;;;;4.93;2.53;;;12.40;96.70;;;;;;5063887;28;20450;-70
2024/03/26 06:56:06;;;;;;;5.85;2.85;;;12.40;96.70;;;;;;5063056;28;20071;-69
2024/03/26 06:58:36;;;;;;;4.57;3.10;;;12.40;96.70;;;;;;5066166;28;20055;-70
2024/03/26 07:01:05;;;;;;;4.38;2.28;;;12.50;96.70;;;;;;5049275;28;20051;-69
2024/03/26 07:03:36;;;;;;;6.68;2.88;;;12.50;96.70;;;;;;5066800;28;20135;-70
2024/03/26 07:06:09;;;;;;;5.65;2.80;;;12.50;96.70;;;;;;5047962;28;20052;-70
2024/03/26 07:08:37;;;;;;;8.30;4.95;;;12.60;96.70;;;;;;5067693;28;20631;-69
2024/03/26 07:11:06;;;;;;;6.55;4.55;;;12.50;96.70;;;;;;5067055;28;20718;-70
2024/03/26 07:13:33;;;;;;;7.97;4.10;;;12.50;96.70;;;;;;5063760;28;20053;-70
2024/03/26 07:16:04;;;;;;;6.82;3.63;;;12.50;96.70;;;;;;5065937;28;20049;-70
2024/03/26 07:18:32;;;;;;;4.55;3.28;;;12.50;96.70;;;;;;5067202;28;20599;-70
2024/03/26 07:21:00;;;;;;;7.18;3.55;;;12.30;96.70;;;;;;5065543;28;20069;-69
2024/03/26 07:23:28;;;;;;;7.65;3.15;;;12.40;96.70;;;;;;5067021;28;20044;-70
2024/03/26 07:25:56;;;;;;;5.07;3.28;;;12.50;96.70;;;;;;5066276;28;20036;-69
2024/03/26 07:28:26;;;;;;;7.85;3.55;;;12.50;96.70;;;;;;5065740;28;20083;-70
2024/03/26 07:30:55;;;;;;;7.00;3.47;;;12.50;96.70;;;;;;5061061;28;20053;-70
2024/03/26 07:33:26;;;;;;;7.07;3.38;;;12.60;96.70;;;;;;5050633;28;20101;-70
2024/03/26 07:35:53;;;;;;;7.22;3.42;;;12.60;96.70;;;;;;5050305;28;20052;-69
2024/03/26 07:38:23;;;;;;;5.82;3.10;;;12.60;96.70;;;;;;5067361;28;20041;-68
2024/03/26 07:40:51;;;;;;;6.80;3.45;;;12.60;96.70;;;;;;5049068;28;20060;-69
2024/03/26 07:43:23;;;;;;;5.75;3.35;;;12.60;96.70;;;;;;5050456;28;20040;-70
2024/03/26 07:45:52;;;;;;;7.30;3.22;;;12.70;96.70;;;;;;5066876;28;20139;-69
2024/03/26 07:48:20;;;;;;;5.53;3.15;;;12.70;96.70;;;;;;5066207;28;20052;-69
2024/03/26 07:50:48;;;;;;;6.82;3.13;;;12.70;96.70;;;;;;5066785;28;20064;-69
2024/03/26 07:53:15;;;;;;;6.82;4.05;;;12.70;96.70;;;;;;5066492;28;20029;-71
2024/03/26 07:55:44;;;;;;;9.57;3.80;;;12.70;96.70;;;;;;5050191;28;20109;-72
2024/03/26 07:58:12;;;;;;;8.52;4.32;;;12.70;96.70;;;;;;5050003;28;20135;-72
2024/03/26 08:00:42;;;;;;;8.93;4.93;;;12.80;96.70;;;;;;5049769;28;20142;-71
2024/03/26 08:03:10;;;;;;;6.85;4.72;;;12.80;96.70;;;;;;5066664;28;20071;-71
2024/03/26 08:05:38;;;;;;;10.38;5.18;;;12.80;96.70;;;;;;5064095;28;20048;-70
2024/03/26 08:08:06;;;;;;;8.50;4.72;;;12.80;96.70;;;;;;5065065;28;20045;-70
2024/03/26 08:10:36;;;;;;;7.60;4.28;;;12.80;96.70;;;;;;5066391;28;20049;-70
2024/03/26 08:13:06;;;;;;;9.00;4.47;;;12.80;96.70;;;;;;5065916;28;20083;-71
2024/03/26 08:15:33;;;;;;;5.75;3.70;;;12.90;96.70;;;;;;5065890;28;20068;-71
2024/03/26 08:18:04;;;;;;;8.35;3.75;;;12.90;96.70;;;;;;5066041;28;20040;-71
2024/03/26 08:20:35;;;;;;;7.65;3.53;;;13.00;96.70;;;;;;5065354;28;20103;-71
2024/03/26 08:23:02;;;;;;;6.65;3.00;;;13.00;96.70;;;;;;5063163;28;20078;-71
2024/03/26 08:25:30;;;;;;;4.75;2.92;;;13.00;96.70;;;;;;5065837;28;20509;-70
2024/03/26 08:27:57;;;;;;;4.07;2.50;;;13.00;96.70;;;;;;5066163;28;20227;-70
2024/03/26 08:30:26;;;;;;;6.00;3.15;;;13.00;96.70;;;;;;5065728;28;20051;-71
2024/03/26 08:32:53;;;;;;;5.45;2.65;;;13.00;96.70;;;;;;5065585;28;20563;-69
2024/03/26 08:35:22;;;;;;;5.05;2.85;;;12.90;96.70;;;;;;5065769;28;20052;-70
2024/03/26 08:37:50;;;;;;;4.50;2.40;;;13.00;96.70;;;;;;5065392;28;20048;-70
2024/03/26 08:40:17;;;;;;;6.50;2.35;;;12.90;96.70;;;;;;5059779;28;20072;-70
2024/03/26 08:42:45;;;;;;;5.90;2.55;;;13.00;96.70;;;;;;5065784;28;20114;-71
2024/03/26 08:45:12;;;;;;;5.13;2.20;;;13.00;96.70;;;;;;5065927;28;20413;-70
2024/03/26 08:47:42;;;;;;;4.43;2.35;;;13.10;96.70;;;;;;5065050;28;20461;-71
2024/03/26 08:50:10;;;;;;;6.47;2.75;;;13.10;96.70;;;;;;5056706;28;20063;-71
2024/03/26 08:52:37;;;;;;;5.80;2.72;;;13.20;96.70;;;;;;5065872;28;20410;-72
2024/03/26 08:55:05;;;;;;;5.22;2.80;;;13.20;96.70;;;;;;5063748;28;20036;-72
2024/03/26 08:57:32;;;;;;;6.05;2.65;;;13.30;96.70;;;;;;5027490;28;20578;-72
2024/03/26 08:59:59;;;;;;;7.13;2.40;;;13.40;96.70;;;;;;5063016;28;20044;-71
2024/03/26 09:02:26;;;;;;;5.75;2.28;;;13.40;96.70;;;;;;5047326;28;20051;-70
2024/03/26 09:04:57;;;;;;;4.72;1.77;;;13.40;96.70;;;;;;5065232;28;20044;-72
2024/03/26 09:07:26;;;;;;;4.75;1.73;;;13.40;96.70;;;;;;5064488;28;20068;-70
2024/03/26 09:09:57;;;;;;;3.95;1.17;;;13.40;96.70;;;;;;5064109;28;20056;-72
2024/03/26 09:12:24;;;;;;;3.40;1.63;;;13.40;96.70;;;;;;5058754;28;20040;-71
2024/03/26 09:14:52;;;;;;;6.75;1.88;;;13.50;96.70;;;;;;5064012;28;20062;-72
2024/03/26 09:17:20;;;;;;;4.45;1.50;;;13.50;96.70;;;;;;5047422;28;20059;-72
2024/03/26 09:19:48;;;;;;;4.57;1.60;;;13.60;96.70;;;;;;5064667;28;20551;-73
2024/03/26 09:22:18;;;;;;;4.65;1.70;;;13.60;96.70;;;;;;5064211;28;20680;-72
2024/03/26 09:24:46;;;;;;;6.80;2.00;;;13.60;96.70;;;;;;5047946;28;20084;-72
2024/03/26 09:27:13;;;;;;;6.75;2.10;;;13.60;96.70;;;;;;5047633;28;20170;-71
2024/03/26 09:29:41;;;;;;;5.20;2.20;;;13.60;96.70;;;;;;5042444;28;20117;-72
2024/03/26 09:32:09;;;;;;;6.20;2.85;;;13.50;96.70;;;;;;5064337;28;20044;-71
2024/03/26 09:34:36;;;;;;;7.60;2.83;;;13.60;96.70;;;;;;5064511;28;20067;-73
2024/03/26 09:37:03;;;;;;;5.80;3.03;;;13.60;96.70;;;;;;5064967;28;20054;-72
2024/03/26 09:39:33;;;;;;;6.05;2.63;;;13.60;96.70;;;;;;5048112;28;20127;-72
2024/03/26 09:42:04;;;;;;;7.22;3.25;;;13.60;96.70;;;;;;5047865;28;20047;-72
2024/03/26 09:44:33;;;;;;;6.68;3.03;;;13.60;96.70;;;;;;5063650;28;20456;-71
2024/03/26 09:47:02;;;;;;;8.18;3.25;;;13.60;96.70;;;;;;5042419;28;20385;-72
2024/03/26 09:49:32;;;;;;;6.05;2.92;;;13.60;96.70;;;;;;5059111;28;20040;-72
2024/03/26 09:52:01;;;;;;;7.72;3.30;;;13.60;96.70;;;;;;5064094;28;20610;-73
2024/03/26 09:54:29;;;;;;;7.00;3.33;;;13.50;96.70;;;;;;5046198;28;20094;-71
2024/03/26 09:56:59;;;;;;;4.00;2.60;;;13.60;96.70;;;;;;5063897;28;20048;-73
2024/03/26 09:59:28;;;;;;;4.68;2.70;;;13.60;96.70;;;;;;5064350;28;20036;-72
2024/03/26 10:02:03;;;;;;;8.88;2.75;;;13.60;96.70;;;;;;5064003;28;20576;-72
2024/03/26 10:04:33;;;;;;;9.13;3.10;;;13.60;96.70;;;;;;5054672;28;20072;-73
2024/03/26 10:07:01;;;;;;;4.40;2.50;;;13.60;96.70;;;;;;5042535;28;20040;-72
2024/03/26 10:09:29;;;;;;;7.07;3.30;;;13.50;96.70;;;;;;5064436;28;20040;-72
2024/03/26 10:11:58;;;;;;;5.40;2.30;;;13.50;96.70;;;;;;5064313;28;20055;-72
2024/03/26 10:14:30;;;;;;;5.60;1.58;;;13.40;96.70;;;;;;5059371;28;20567;-72
2024/03/26 10:16:59;;;;;;;3.50;1.60;;;13.40;96.70;;;;;;5063419;28;20036;-72
2024/03/26 10:19:26;;;;;;;4.63;1.85;;;13.40;96.70;;;;;;5063610;28;20131;-71
2024/03/26 10:21:54;;;;;;;6.72;2.28;;;13.40;96.70;;;;;;5058302;28;20412;-72
2024/03/26 10:24:22;;;;;;;5.35;3.38;;;13.50;96.70;;;;;;5062749;28;20122;-72
2024/03/26 10:26:51;;;;;;;6.53;3.80;;;13.50;96.70;;;;;;5049283;28;20087;-72
2024/03/26 10:29:21;;;;;;;5.90;2.83;;;13.50;96.70;;;;;;5071014;28;20062;-72
2024/03/26 10:31:52;;;;;;;4.55;1.92;;;13.60;96.70;;;;;;5072390;28;20055;-72
2024/03/26 10:34:24;;;;;;;3.70;2.08;;;13.60;96.70;;;;;;5091040;28;20333;-71
2024/03/26 10:36:56;;;;;;;3.33;1.70;;;13.60;96.70;;;;;;5091265;28;20090;-72
2024/03/26 10:39:26;;;;;;;4.63;1.70;;;13.70;96.70;;;;;;5091306;28;20408;-71
2024/03/26 10:41:55;;;;;;;6.93;1.92;;;13.90;96.70;;;;;;5070044;28;20050;-71
2024/03/26 10:44:27;;;;;;;3.58;1.45;;;13.90;96.70;;;;;;5091283;28;20559;-72
2024/03/26 10:46:58;;;;;;;5.97;2.72;;;14.00;96.70;;;;;;5091301;28;20077;-71
2024/03/26 10:49:26;;;;;;;4.05;1.83;;;14.10;96.70;;;;;;5091315;28;20511;-72
2024/03/26 10:51:55;;;;;;;5.43;2.30;;;14.20;96.70;;;;;;5093258;28;20518;-72
2024/03/26 10:54:23;;;;;;;7.80;2.72;;;14.30;96.70;;;;;;5090280;28;20543;-72
2024/03/26 10:56:53;;;;;;;5.13;3.22;;;14.40;96.70;;;;;;5090744;28;20043;-70
2024/03/26 10:59:21;;;;;;;5.05;2.83;;;14.40;96.70;;;;;;5091266;28;20036;-71
2024/03/26 11:01:52;;;;;;;8.38;3.75;;;14.30;96.70;;;;;;5090246;28;20136;-71
2024/03/26 11:04:20;;;;;;;5.38;2.95;;;14.40;96.70;;;;;;5091018;28;20039;-71
2024/03/26 11:06:50;;;;;;;6.75;3.30;;;14.40;96.70;;;;;;5086854;28;20048;-70
2024/03/26 11:09:18;;;;;;;5.70;2.45;;;14.40;96.70;;;;;;5091457;28;20135;-71
2024/03/26 11:11:50;;;;;;;6.20;2.47;;;14.40;96.70;;;;;;5071612;28;20051;-71
2024/03/26 11:14:18;;;;;;;4.45;2.03;;;14.40;96.70;;;;;;5074075;28;20063;-71
2024/03/26 11:16:46;;;;;;;5.72;2.38;;;14.40;96.70;;;;;;5090263;28;20048;-71
2024/03/26 11:19:19;;;;;;;6.78;2.58;;;14.50;96.70;;;;;;5087222;28;20047;-71
2024/03/26 11:21:48;;;;;;;6.30;2.80;;;14.50;96.70;;;;;;5091224;28;20151;-71
2024/03/26 11:24:22;;;;;;;6.57;2.35;;;14.60;96.70;;;;;;5090177;28;20044;-72
2024/03/26 11:26:51;;;;;;;5.30;2.20;;;14.60;96.70;;;;;;5089935;28;20642;-71
2024/03/26 11:29:19;;;;;;;5.30;1.95;;;14.60;96.70;;;;;;5085162;28;20043;-72
2024/03/26 11:31:46;;;;;;;6.45;2.63;;;14.60;96.70;;;;;;5087989;28;20043;-71
2024/03/26 11:34:14;;;;;;;5.53;2.60;;;14.70;96.70;;;;;;5090759;28;20097;-71
2024/03/26 11:36:43;;;;;;;7.05;3.20;;;14.70;96.70;;;;;;5089872;28;20500;-71
2024/03/26 11:39:15;;;;;;;9.00;3.25;;;14.60;96.70;;;;;;5090918;28;20067;-71
2024/03/26 11:41:43;;;;;;;8.68;4.75;;;14.60;96.70;;;;;;5072785;28;20386;-71
2024/03/26 11:44:10;;;;;;;7.93;3.58;;;14.70;96.70;;;;;;5089420;28;20047;-71
2024/03/26 11:46:39;;;;;;;5.57;3.00;;;14.70;96.70;;;;;;5085615;28;20075;-71
2024/03/26 11:49:07;;;;;;;6.32;3.10;;;14.60;96.70;;;;;;5089431;28;20058;-71
2024/03/26 11:51:36;;;;;;;5.05;3.10;;;14.60;96.70;;;;;;5072626;28;20052;-68
2024/03/26 11:54:05;;;;;;;6.93;3.45;;;14.50;96.70;;;;;;5090050;28;20044;-70
2024/03/26 11:56:33;;;;;;;6.13;2.90;;;14.40;96.70;;;;;;5073102;28;20460;-71
2024/03/26 11:59:02;;;;;;;5.78;2.40;;;14.40;96.70;;;;;;5082430;28;20051;-71
2024/03/26 12:01:30;;;;;;;4.18;2.20;;;14.40;96.70;;;;;;5088437;28;20062;-72
2024/03/26 12:04:02;;;;;;;4.88;2.75;;;14.30;96.70;;;;;;5089387;28;20044;-71
2024/03/26 12:06:33;;;;;;;5.45;2.90;;;14.40;96.70;;;;;;5090119;28;20044;-70
2024/03/26 12:09:04;;;;;;;4.45;2.13;;;14.50;96.70;;;;;;5090238;28;20092;-71
2024/03/26 12:11:34;;;;;;;7.18;3.45;;;14.50;96.70;;;;;;5072852;28;20511;-71
2024/03/26 12:14:02;;;;;;;5.55;2.60;;;14.50;96.70;;;;;;5086406;28;20504;-71
2024/03/26 12:16:31;;;;;;;6.32;3.10;;;14.50;96.70;;;;;;5089676;28;20047;-71
2024/03/26 12:19:03;;;;;;;4.78;2.92;;;14.60;96.70;;;;;;5086688;28;20455;-71
2024/03/26 12:21:32;;;;;;;10.45;3.55;;;14.60;96.70;;;;;;5085741;28;20042;-72
2024/03/26 12:24:00;;;;;;;4.82;3.10;;;14.60;96.70;;;;;;5072038;28;20197;-71
2024/03/26 12:26:29;;;;;;;9.02;3.58;;;14.60;96.70;;;;;;5072374;28;20056;-71
2024/03/26 12:29:03;;;;;;;6.68;3.15;;;14.60;96.70;;;;;;5080375;28;20129;-71
2024/03/26 12:31:33;;;;;;;4.93;2.92;;;14.60;96.70;;;;;;5088792;28;20096;-71
2024/03/26 12:34:08;;;;;;;7.10;2.95;;;14.60;96.70;;;;;;5089084;28;20372;-71
2024/03/26 12:36:37;;;;;;;7.47;3.67;;;14.60;96.70;;;;;;5068570;28;20040;-72
2024/03/26 12:39:09;;;;;;;5.78;2.85;;;14.70;96.70;;;;;;5087024;28;20051;-71
2024/03/26 12:41:39;;;;;;;6.82;2.83;;;14.70;96.70;;;;;;5089158;28;20500;-71
2024/03/26 12:44:13;;;;;;;6.65;3.17;;;14.70;96.70;;;;;;5086024;28;20040;-71
2024/03/26 12:46:41;;;;;;;7.53;3.80;;;14.70;96.70;;;;;;5088750;28;20035;-71
2024/03/26 12:49:10;;;;;;;8.93;3.80;;;14.80;96.70;;;;;;5088699;28;20052;-70
2024/03/26 12:51:40;;;;;;;5.57;3.58;;;14.80;96.70;;;;;;5081897;28;20052;-71